sensor_id;sensor_type;location;lat;lon;timestamp;P1;P2;P0
73517;PMS5003;61766;60.318;25.044;2023-12-29T00:01:12;4;3;
73517;PMS5003;61766;60.318;25.044;2023-12-29T00:03:38;5;4;
73517;PMS5003;61766;60.318;25.044;2023-12-29T00:06:03;3;3;
73517;PMS5003;61766;60.318;25.044;2023-12-29T00:08:28;4;3;
73517;PMS5003;61766;60.318;25.044;2023-12-29T00:10:55;3;3;
73517;PMS5003;61766;60.318;25.044;2023-12-29T00:13:19;2;2;
73517;PMS5003;61766;60.318;25.044;2023-12-29T00:15:44;5;4;
73517;PMS5003;61766;60.318;25.044;2023-12-29T00:18:09;3;3;
73517;PMS5003;61766;60.318;25.044;2023-12-29T00:20:34;4;2;
73517;PMS5003;61766;60.318;25.044;2023-12-29T00:22:59;3;3;
73517;PMS5003;61766;60.318;25.044;2023-12-29T00:25:24;4;4;
73517;PMS5003;61766;60.318;25.044;2023-12-29T00:27:50;3;3;
73517;PMS5003;61766;60.318;25.044;2023-12-29T00:30:15;3;3;
73517;PMS5003;61766;60.318;25.044;2023-12-29T00:32:40;3;3;
73517;PMS5003;61766;60.318;25.044;2023-12-29T00:35:07;5;4;
73517;PMS5003;61766;60.318;25.044;2023-12-29T00:37:31;3;3;
73517;PMS5003;61766;60.318;25.044;2023-12-29T00:39:56;3;3;
73517;PMS5003;61766;60.318;25.044;2023-12-29T00:42:21;2;2;
73517;PMS5003;61766;60.318;25.044;2023-12-29T00:44:46;3;3;
73517;PMS5003;61766;60.318;25.044;2023-12-29T00:47:11;3;3;
73517;PMS5003;61766;60.318;25.044;2023-12-29T00:49:38;5;5;
73517;PMS5003;61766;60.318;25.044;2023-12-29T00:52:03;3;3;
73517;PMS5003;61766;60.318;25.044;2023-12-29T00:54:28;5;3;
73517;PMS5003;61766;60.318;25.044;2023-12-29T00:56:54;4;3;
73517;PMS5003;61766;60.318;25.044;2023-12-29T00:59:18;3;3;
73517;PMS5003;61766;60.318;25.044;2023-12-29T01:01:43;5;5;
73517;PMS5003;61766;60.318;25.044;2023-12-29T01:04:08;6;5;
73517;PMS5003;61766;60.318;25.044;2023-12-29T01:06:34;6;5;
73517;PMS5003;61766;60.318;25.044;2023-12-29T01:08:59;4;4;
73517;PMS5003;61766;60.318;25.044;2023-12-29T01:11:25;5;5;
73517;PMS5003;61766;60.318;25.044;2023-12-29T01:13:50;5;5;
73517;PMS5003;61766;60.318;25.044;2023-12-29T01:16:15;5;4;
73517;PMS5003;61766;60.318;25.044;2023-12-29T01:18:40;7;6;
73517;PMS5003;61766;60.318;25.044;2023-12-29T01:21:05;4;4;
73517;PMS5003;61766;60.318;25.044;2023-12-29T01:23:31;4;4;
73517;PMS5003;61766;60.318;25.044;2023-12-29T01:25:56;4;4;
73517;PMS5003;61766;60.318;25.044;2023-12-29T01:28:21;5;4;
73517;PMS5003;61766;60.318;25.044;2023-12-29T01:30:46;5;4;
73517;PMS5003;61766;60.318;25.044;2023-12-29T01:33:11;5;5;
73517;PMS5003;61766;60.318;25.044;2023-12-29T01:35:38;5;4;
73517;PMS5003;61766;60.318;25.044;2023-12-29T01:38:03;5;4;
73517;PMS5003;61766;60.318;25.044;2023-12-29T01:40:28;4;4;
73517;PMS5003;61766;60.318;25.044;2023-12-29T01:42:53;5;5;
73517;PMS5003;61766;60.318;25.044;2023-12-29T01:45:20;5;4;
73517;PMS5003;61766;60.318;25.044;2023-12-29T01:47:43;5;5;
73517;PMS5003;61766;60.318;25.044;2023-12-29T01:50:08;5;5;
73517;PMS5003;61766;60.318;25.044;2023-12-29T01:52:34;4;4;
73517;PMS5003;61766;60.318;25.044;2023-12-29T01:54:59;4;4;
73517;PMS5003;61766;60.318;25.044;2023-12-29T01:57:24;6;6;
73517;PMS5003;61766;60.318;25.044;2023-12-29T01:59:50;5;5;
73517;PMS5003;61766;60.318;25.044;2023-12-29T02:02:15;8;7;
73517;PMS5003;61766;60.318;25.044;2023-12-29T02:04:40;4;4;
73517;PMS5003;61766;60.318;25.044;2023-12-29T02:07:05;4;4;
73517;PMS5003;61766;60.318;25.044;2023-12-29T02:09:31;5;5;
73517;PMS5003;61766;60.318;25.044;2023-12-29T02:11:56;5;5;
73517;PMS5003;61766;60.318;25.044;2023-12-29T02:14:21;3;3;
73517;PMS5003;61766;60.318;25.044;2023-12-29T02:16:50;5;5;
73517;PMS5003;61766;60.318;25.044;2023-12-29T02:19:14;4;4;
73517;PMS5003;61766;60.318;25.044;2023-12-29T02:21:37;5;4;
73517;PMS5003;61766;60.318;25.044;2023-12-29T02:24:03;3;3;
73517;PMS5003;61766;60.318;25.044;2023-12-29T02:26:29;3;3;
73517;PMS5003;61766;60.318;25.044;2023-12-29T02:29:01;5;5;
73517;PMS5003;61766;60.318;25.044;2023-12-29T02:31:19;6;6;
73517;PMS5003;61766;60.318;25.044;2023-12-29T02:33:43;5;5;
73517;PMS5003;61766;60.318;25.044;2023-12-29T02:36:08;5;5;
73517;PMS5003;61766;60.318;25.044;2023-12-29T02:38:34;4;4;
73517;PMS5003;61766;60.318;25.044;2023-12-29T02:40:59;5;4;
73517;PMS5003;61766;60.318;25.044;2023-12-29T02:43:24;4;4;
73517;PMS5003;61766;60.318;25.044;2023-12-29T02:45:49;5;5;
73517;PMS5003;61766;60.318;25.044;2023-12-29T02:48:14;4;4;
73517;PMS5003;61766;60.318;25.044;2023-12-29T02:50:40;5;5;
73517;PMS5003;61766;60.318;25.044;2023-12-29T02:53:05;6;5;
73517;PMS5003;61766;60.318;25.044;2023-12-29T02:55:30;5;5;
73517;PMS5003;61766;60.318;25.044;2023-12-29T02:57:55;5;5;
73517;PMS5003;61766;60.318;25.044;2023-12-29T03:00:20;6;6;
73517;PMS5003;61766;60.318;25.044;2023-12-29T03:02:47;5;5;
73517;PMS5003;61766;60.318;25.044;2023-12-29T03:05:11;5;5;
73517;PMS5003;61766;60.318;25.044;2023-12-29T03:07:37;6;6;
73517;PMS5003;61766;60.318;25.044;2023-12-29T03:10:02;4;4;
73517;PMS5003;61766;60.318;25.044;2023-12-29T03:12:27;6;6;
73517;PMS5003;61766;60.318;25.044;2023-12-29T03:14:52;6;6;
73517;PMS5003;61766;60.318;25.044;2023-12-29T03:17:17;4;4;
73517;PMS5003;61766;60.318;25.044;2023-12-29T03:19:43;6;6;
73517;PMS5003;61766;60.318;25.044;2023-12-29T03:22:08;6;5;
73517;PMS5003;61766;60.318;25.044;2023-12-29T03:24:34;6;6;
73517;PMS5003;61766;60.318;25.044;2023-12-29T03:26:58;7;7;
73517;PMS5003;61766;60.318;25.044;2023-12-29T03:29:23;6;6;
73517;PMS5003;61766;60.318;25.044;2023-12-29T03:31:49;5;5;
73517;PMS5003;61766;60.318;25.044;2023-12-29T03:34:14;8;8;
73517;PMS5003;61766;60.318;25.044;2023-12-29T03:36:39;7;6;
73517;PMS5003;61766;60.318;25.044;2023-12-29T03:39:05;6;6;
73517;PMS5003;61766;60.318;25.044;2023-12-29T03:41:30;8;7;
73517;PMS5003;61766;60.318;25.044;2023-12-29T03:43:55;8;7;
73517;PMS5003;61766;60.318;25.044;2023-12-29T03:46:21;6;6;
73517;PMS5003;61766;60.318;25.044;2023-12-29T03:48:46;8;7;
73517;PMS5003;61766;60.318;25.044;2023-12-29T03:51:11;6;6;
73517;PMS5003;61766;60.318;25.044;2023-12-29T03:53:36;8;8;
73517;PMS5003;61766;60.318;25.044;2023-12-29T03:56:04;7;7;
73517;PMS5003;61766;60.318;25.044;2023-12-29T03:58:27;9;8;
73517;PMS5003;61766;60.318;25.044;2023-12-29T04:00:52;7;7;
73517;PMS5003;61766;60.318;25.044;2023-12-29T04:03:17;7;7;
73517;PMS5003;61766;60.318;25.044;2023-12-29T04:05:42;6;6;
73517;PMS5003;61766;60.318;25.044;2023-12-29T04:08:08;8;8;
73517;PMS5003;61766;60.318;25.044;2023-12-29T04:10:33;6;6;
73517;PMS5003;61766;60.318;25.044;2023-12-29T04:12:58;6;6;
73517;PMS5003;61766;60.318;25.044;2023-12-29T04:15:23;7;6;
73517;PMS5003;61766;60.318;25.044;2023-12-29T04:17:49;7;7;
73517;PMS5003;61766;60.318;25.044;2023-12-29T04:20:14;8;7;
73517;PMS5003;61766;60.318;25.044;2023-12-29T04:22:40;6;6;
73517;PMS5003;61766;60.318;25.044;2023-12-29T04:25:05;8;7;
73517;PMS5003;61766;60.318;25.044;2023-12-29T04:27:30;9;8;
73517;PMS5003;61766;60.318;25.044;2023-12-29T04:29:55;8;8;
73517;PMS5003;61766;60.318;25.044;2023-12-29T04:32:20;7;7;
73517;PMS5003;61766;60.318;25.044;2023-12-29T04:34:45;7;7;
73517;PMS5003;61766;60.318;25.044;2023-12-29T04:37:11;6;6;
73517;PMS5003;61766;60.318;25.044;2023-12-29T04:39:36;7;7;
73517;PMS5003;61766;60.318;25.044;2023-12-29T04:42:01;7;7;
73517;PMS5003;61766;60.318;25.044;2023-12-29T04:44:26;8;8;
73517;PMS5003;61766;60.318;25.044;2023-12-29T04:46:51;7;7;
73517;PMS5003;61766;60.318;25.044;2023-12-29T04:49:17;7;7;
73517;PMS5003;61766;60.318;25.044;2023-12-29T04:51:42;8;8;
73517;PMS5003;61766;60.318;25.044;2023-12-29T04:54:07;6;6;
73517;PMS5003;61766;60.318;25.044;2023-12-29T04:56:33;6;5;
73517;PMS5003;61766;60.318;25.044;2023-12-29T04:58:58;6;6;
73517;PMS5003;61766;60.318;25.044;2023-12-29T05:01:23;7;7;
73517;PMS5003;61766;60.318;25.044;2023-12-29T05:03:48;7;7;
73517;PMS5003;61766;60.318;25.044;2023-12-29T05:06:13;9;8;
73517;PMS5003;61766;60.318;25.044;2023-12-29T05:08:39;6;6;
73517;PMS5003;61766;60.318;25.044;2023-12-29T05:11:04;8;8;
73517;PMS5003;61766;60.318;25.044;2023-12-29T05:13:29;7;7;
73517;PMS5003;61766;60.318;25.044;2023-12-29T05:15:54;9;8;
73517;PMS5003;61766;60.318;25.044;2023-12-29T05:18:19;7;7;
73517;PMS5003;61766;60.318;25.044;2023-12-29T05:20:45;7;7;
73517;PMS5003;61766;60.318;25.044;2023-12-29T05:23:10;6;6;
73517;PMS5003;61766;60.318;25.044;2023-12-29T05:25:35;6;6;
73517;PMS5003;61766;60.318;25.044;2023-12-29T05:28:00;9;8;
73517;PMS5003;61766;60.318;25.044;2023-12-29T05:30:25;9;8;
73517;PMS5003;61766;60.318;25.044;2023-12-29T05:32:51;8;8;
73517;PMS5003;61766;60.318;25.044;2023-12-29T05:35:16;7;7;
73517;PMS5003;61766;60.318;25.044;2023-12-29T05:37:42;5;5;
73517;PMS5003;61766;60.318;25.044;2023-12-29T05:40:07;7;6;
73517;PMS5003;61766;60.318;25.044;2023-12-29T05:42:32;7;7;
73517;PMS5003;61766;60.318;25.044;2023-12-29T05:44:57;6;6;
73517;PMS5003;61766;60.318;25.044;2023-12-29T05:47:22;5;5;
73517;PMS5003;61766;60.318;25.044;2023-12-29T05:49:48;7;6;
73517;PMS5003;61766;60.318;25.044;2023-12-29T05:52:13;7;7;
73517;PMS5003;61766;60.318;25.044;2023-12-29T05:54:38;5;5;
73517;PMS5003;61766;60.318;25.044;2023-12-29T05:57:03;6;6;
73517;PMS5003;61766;60.318;25.044;2023-12-29T05:59:28;4;4;
73517;PMS5003;61766;60.318;25.044;2023-12-29T06:01:54;5;5;
73517;PMS5003;61766;60.318;25.044;2023-12-29T06:04:19;6;6;
73517;PMS5003;61766;60.318;25.044;2023-12-29T06:06:45;8;8;
73517;PMS5003;61766;60.318;25.044;2023-12-29T06:09:11;5;4;
73517;PMS5003;61766;60.318;25.044;2023-12-29T06:11:36;4;4;
73517;PMS5003;61766;60.318;25.044;2023-12-29T06:14:01;5;5;
73517;PMS5003;61766;60.318;25.044;2023-12-29T06:16:26;6;5;
73517;PMS5003;61766;60.318;25.044;2023-12-29T06:18:51;4;4;
73517;PMS5003;61766;60.318;25.044;2023-12-29T06:21:16;5;4;
73517;PMS5003;61766;60.318;25.044;2023-12-29T06:23:42;8;7;
73517;PMS5003;61766;60.318;25.044;2023-12-29T06:28:32;7;7;
73517;PMS5003;61766;60.318;25.044;2023-12-29T06:30:57;7;7;
73517;PMS5003;61766;60.318;25.044;2023-12-29T06:33:22;5;5;
73517;PMS5003;61766;60.318;25.044;2023-12-29T06:35:48;9;9;
73517;PMS5003;61766;60.318;25.044;2023-12-29T06:38:14;9;9;
73517;PMS5003;61766;60.318;25.044;2023-12-29T06:40:38;7;7;
73517;PMS5003;61766;60.318;25.044;2023-12-29T06:43:03;8;7;
73517;PMS5003;61766;60.318;25.044;2023-12-29T06:45:28;8;7;
73517;PMS5003;61766;60.318;25.044;2023-12-29T06:47:54;7;7;
73517;PMS5003;61766;60.318;25.044;2023-12-29T06:50:20;8;8;
73517;PMS5003;61766;60.318;25.044;2023-12-29T06:52:45;9;9;
73517;PMS5003;61766;60.318;25.044;2023-12-29T06:55:10;9;8;
73517;PMS5003;61766;60.318;25.044;2023-12-29T06:57:35;7;7;
73517;PMS5003;61766;60.318;25.044;2023-12-29T07:00:00;9;8;
73517;PMS5003;61766;60.318;25.044;2023-12-29T07:02:26;8;8;
73517;PMS5003;61766;60.318;25.044;2023-12-29T07:04:51;11;10;
73517;PMS5003;61766;60.318;25.044;2023-12-29T07:07:16;9;9;
73517;PMS5003;61766;60.318;25.044;2023-12-29T07:09:41;9;9;
73517;PMS5003;61766;60.318;25.044;2023-12-29T07:12:06;9;9;
73517;PMS5003;61766;60.318;25.044;2023-12-29T07:14:32;8;8;
73517;PMS5003;61766;60.318;25.044;2023-12-29T07:16:57;8;7;
73517;PMS5003;61766;60.318;25.044;2023-12-29T07:19:22;10;10;
73517;PMS5003;61766;60.318;25.044;2023-12-29T07:21:47;10;10;
73517;PMS5003;61766;60.318;25.044;2023-12-29T07:24:13;11;10;
73517;PMS5003;61766;60.318;25.044;2023-12-29T07:26:38;10;10;
73517;PMS5003;61766;60.318;25.044;2023-12-29T07:29:04;9;9;
73517;PMS5003;61766;60.318;25.044;2023-12-29T07:31:32;10;9;
73517;PMS5003;61766;60.318;25.044;2023-12-29T07:33:55;11;11;
73517;PMS5003;61766;60.318;25.044;2023-12-29T07:36:20;12;12;
73517;PMS5003;61766;60.318;25.044;2023-12-29T07:38:46;13;11;
73517;PMS5003;61766;60.318;25.044;2023-12-29T07:41:11;10;10;
73517;PMS5003;61766;60.318;25.044;2023-12-29T07:43:39;10;9;
73517;PMS5003;61766;60.318;25.044;2023-12-29T07:46:01;13;12;
73517;PMS5003;61766;60.318;25.044;2023-12-29T07:48:27;14;14;
73517;PMS5003;61766;60.318;25.044;2023-12-29T07:50:53;12;11;
73517;PMS5003;61766;60.318;25.044;2023-12-29T07:53:18;13;13;
73517;PMS5003;61766;60.318;25.044;2023-12-29T07:55:44;9;8;
73517;PMS5003;61766;60.318;25.044;2023-12-29T07:58:09;9;9;
73517;PMS5003;61766;60.318;25.044;2023-12-29T08:00:34;9;9;
73517;PMS5003;61766;60.318;25.044;2023-12-29T08:02:59;11;11;
73517;PMS5003;61766;60.318;25.044;2023-12-29T08:05:24;13;12;
73517;PMS5003;61766;60.318;25.044;2023-12-29T08:07:50;10;10;
73517;PMS5003;61766;60.318;25.044;2023-12-29T08:10:15;13;13;
73517;PMS5003;61766;60.318;25.044;2023-12-29T08:12:40;9;9;
73517;PMS5003;61766;60.318;25.044;2023-12-29T08:15:06;9;9;
73517;PMS5003;61766;60.318;25.044;2023-12-29T08:17:30;11;10;
73517;PMS5003;61766;60.318;25.044;2023-12-29T08:19:56;12;12;
73517;PMS5003;61766;60.318;25.044;2023-12-29T08:22:21;12;11;
73517;PMS5003;61766;60.318;25.044;2023-12-29T08:24:46;10;9;
73517;PMS5003;61766;60.318;25.044;2023-12-29T08:27:12;12;11;
73517;PMS5003;61766;60.318;25.044;2023-12-29T08:29:37;11;10;
73517;PMS5003;61766;60.318;25.044;2023-12-29T08:32:03;13;13;
73517;PMS5003;61766;60.318;25.044;2023-12-29T08:34:28;10;9;
73517;PMS5003;61766;60.318;25.044;2023-12-29T08:36:53;13;11;
73517;PMS5003;61766;60.318;25.044;2023-12-29T08:39:19;12;12;
73517;PMS5003;61766;60.318;25.044;2023-12-29T08:41:44;15;13;
73517;PMS5003;61766;60.318;25.044;2023-12-29T08:44:09;10;10;
73517;PMS5003;61766;60.318;25.044;2023-12-29T08:46:35;12;11;
73517;PMS5003;61766;60.318;25.044;2023-12-29T08:49:01;12;12;
73517;PMS5003;61766;60.318;25.044;2023-12-29T08:51:26;12;11;
73517;PMS5003;61766;60.318;25.044;2023-12-29T08:53:52;13;13;
73517;PMS5003;61766;60.318;25.044;2023-12-29T08:56:17;11;11;
73517;PMS5003;61766;60.318;25.044;2023-12-29T08:58:42;12;11;
73517;PMS5003;61766;60.318;25.044;2023-12-29T09:01:08;11;11;
73517;PMS5003;61766;60.318;25.044;2023-12-29T09:03:33;10;10;
73517;PMS5003;61766;60.318;25.044;2023-12-29T09:05:58;10;9;
73517;PMS5003;61766;60.318;25.044;2023-12-29T09:08:23;8;8;
73517;PMS5003;61766;60.318;25.044;2023-12-29T09:10:49;11;11;
73517;PMS5003;61766;60.318;25.044;2023-12-29T09:13:14;8;8;
73517;PMS5003;61766;60.318;25.044;2023-12-29T09:15:40;12;12;
73517;PMS5003;61766;60.318;25.044;2023-12-29T09:18:05;9;9;
73517;PMS5003;61766;60.318;25.044;2023-12-29T09:20:31;11;11;
73517;PMS5003;61766;60.318;25.044;2023-12-29T09:22:57;9;9;
73517;PMS5003;61766;60.318;25.044;2023-12-29T09:25:23;14;12;
73517;PMS5003;61766;60.318;25.044;2023-12-29T09:27:48;13;12;
73517;PMS5003;61766;60.318;25.044;2023-12-29T09:30:13;14;14;
73517;PMS5003;61766;60.318;25.044;2023-12-29T09:32:39;10;10;
73517;PMS5003;61766;60.318;25.044;2023-12-29T09:35:04;11;11;
73517;PMS5003;61766;60.318;25.044;2023-12-29T09:37:29;10;9;
73517;PMS5003;61766;60.318;25.044;2023-12-29T09:39:55;10;9;
73517;PMS5003;61766;60.318;25.044;2023-12-29T09:42:20;10;10;
73517;PMS5003;61766;60.318;25.044;2023-12-29T09:44:46;15;13;
73517;PMS5003;61766;60.318;25.044;2023-12-29T09:47:11;10;10;
73517;PMS5003;61766;60.318;25.044;2023-12-29T09:49:37;13;13;
73517;PMS5003;61766;60.318;25.044;2023-12-29T09:52:02;10;10;
73517;PMS5003;61766;60.318;25.044;2023-12-29T09:54:28;11;11;
73517;PMS5003;61766;60.318;25.044;2023-12-29T09:56:53;16;13;
73517;PMS5003;61766;60.318;25.044;2023-12-29T09:59:19;11;11;
73517;PMS5003;61766;60.318;25.044;2023-12-29T10:01:44;10;9;
73517;PMS5003;61766;60.318;25.044;2023-12-29T10:04:09;11;11;
73517;PMS5003;61766;60.318;25.044;2023-12-29T10:06:36;12;11;
73517;PMS5003;61766;60.318;25.044;2023-12-29T10:09:00;12;12;
73517;PMS5003;61766;60.318;25.044;2023-12-29T10:11:25;9;9;
73517;PMS5003;61766;60.318;25.044;2023-12-29T10:13:52;10;9;
73517;PMS5003;61766;60.318;25.044;2023-12-29T10:16:18;14;13;
73517;PMS5003;61766;60.318;25.044;2023-12-29T10:18:42;11;11;
73517;PMS5003;61766;60.318;25.044;2023-12-29T10:21:07;9;9;
73517;PMS5003;61766;60.318;25.044;2023-12-29T10:23:38;9;9;
73517;PMS5003;61766;60.318;25.044;2023-12-29T10:25:57;10;10;
73517;PMS5003;61766;60.318;25.044;2023-12-29T10:28:23;11;10;
73517;PMS5003;61766;60.318;25.044;2023-12-29T10:30:49;12;12;
73517;PMS5003;61766;60.318;25.044;2023-12-29T10:33:18;11;10;
73517;PMS5003;61766;60.318;25.044;2023-12-29T10:35:39;10;10;
73517;PMS5003;61766;60.318;25.044;2023-12-29T10:38:09;11;10;
73517;PMS5003;61766;60.318;25.044;2023-12-29T10:40:30;11;11;
73517;PMS5003;61766;60.318;25.044;2023-12-29T10:42:55;12;11;
73517;PMS5003;61766;60.318;25.044;2023-12-29T10:45:20;12;11;
73517;PMS5003;61766;60.318;25.044;2023-12-29T10:47:45;10;10;
73517;PMS5003;61766;60.318;25.044;2023-12-29T10:50:11;11;10;
73517;PMS5003;61766;60.318;25.044;2023-12-29T10:52:36;13;13;
73517;PMS5003;61766;60.318;25.044;2023-12-29T10:55:04;11;9;
73517;PMS5003;61766;60.318;25.044;2023-12-29T10:57:28;9;9;
73517;PMS5003;61766;60.318;25.044;2023-12-29T10:59:54;11;11;
73517;PMS5003;61766;60.318;25.044;2023-12-29T11:02:18;9;9;
73517;PMS5003;61766;60.318;25.044;2023-12-29T11:04:45;11;10;
73517;PMS5003;61766;60.318;25.044;2023-12-29T11:07:11;11;11;
73517;PMS5003;61766;60.318;25.044;2023-12-29T11:09:35;9;9;
73517;PMS5003;61766;60.318;25.044;2023-12-29T11:12:01;11;10;
73517;PMS5003;61766;60.318;25.044;2023-12-29T11:14:26;11;10;
73517;PMS5003;61766;60.318;25.044;2023-12-29T11:16:52;12;11;
73517;PMS5003;61766;60.318;25.044;2023-12-29T11:19:16;11;11;
73517;PMS5003;61766;60.318;25.044;2023-12-29T11:21:41;9;8;
73517;PMS5003;61766;60.318;25.044;2023-12-29T11:24:07;8;8;
73517;PMS5003;61766;60.318;25.044;2023-12-29T11:26:32;10;10;
73517;PMS5003;61766;60.318;25.044;2023-12-29T11:28:57;17;16;
73517;PMS5003;61766;60.318;25.044;2023-12-29T11:31:22;9;8;
73517;PMS5003;61766;60.318;25.044;2023-12-29T11:33:49;11;11;
73517;PMS5003;61766;60.318;25.044;2023-12-29T11:36:15;12;12;
73517;PMS5003;61766;60.318;25.044;2023-12-29T11:38:43;14;12;
73517;PMS5003;61766;60.318;25.044;2023-12-29T11:41:07;7;7;
73517;PMS5003;61766;60.318;25.044;2023-12-29T11:43:30;8;8;
73517;PMS5003;61766;60.318;25.044;2023-12-29T11:45:55;9;7;
73517;PMS5003;61766;60.318;25.044;2023-12-29T11:50:45;6;6;
73517;PMS5003;61766;60.318;25.044;2023-12-29T11:53:11;7;7;
73517;PMS5003;61766;60.318;25.044;2023-12-29T11:55:36;8;8;
73517;PMS5003;61766;60.318;25.044;2023-12-29T11:58:01;7;7;
73517;PMS5003;61766;60.318;25.044;2023-12-29T12:02:51;9;9;
73517;PMS5003;61766;60.318;25.044;2023-12-29T12:12:38;8;7;
73517;PMS5003;61766;60.318;25.044;2023-12-29T12:14:58;11;11;
73517;PMS5003;61766;60.318;25.044;2023-12-29T12:17:27;9;9;
73517;PMS5003;61766;60.318;25.044;2023-12-29T12:19:49;10;10;
73517;PMS5003;61766;60.318;25.044;2023-12-29T12:22:14;9;9;
73517;PMS5003;61766;60.318;25.044;2023-12-29T12:24:39;7;6;
73517;PMS5003;61766;60.318;25.044;2023-12-29T12:27:09;8;8;
73517;PMS5003;61766;60.318;25.044;2023-12-29T12:29:30;9;9;
73517;PMS5003;61766;60.318;25.044;2023-12-29T12:31:56;8;8;
73517;PMS5003;61766;60.318;25.044;2023-12-29T12:34:20;9;8;
73517;PMS5003;61766;60.318;25.044;2023-12-29T12:36:47;7;7;
73517;PMS5003;61766;60.318;25.044;2023-12-29T12:39:11;7;7;
73517;PMS5003;61766;60.318;25.044;2023-12-29T12:41:36;8;8;
73517;PMS5003;61766;60.318;25.044;2023-12-29T12:44:03;8;8;
73517;PMS5003;61766;60.318;25.044;2023-12-29T12:46:26;9;9;
73517;PMS5003;61766;60.318;25.044;2023-12-29T12:48:51;9;8;
73517;PMS5003;61766;60.318;25.044;2023-12-29T12:51:17;9;9;
73517;PMS5003;61766;60.318;25.044;2023-12-29T12:53:42;9;9;
73517;PMS5003;61766;60.318;25.044;2023-12-29T12:56:07;9;9;
73517;PMS5003;61766;60.318;25.044;2023-12-29T12:58:32;9;9;
73517;PMS5003;61766;60.318;25.044;2023-12-29T13:00:58;12;12;
73517;PMS5003;61766;60.318;25.044;2023-12-29T13:03:23;9;9;
73517;PMS5003;61766;60.318;25.044;2023-12-29T13:05:48;9;9;
73517;PMS5003;61766;60.318;25.044;2023-12-29T13:08:13;7;7;
73517;PMS5003;61766;60.318;25.044;2023-12-29T13:10:40;7;7;
73517;PMS5003;61766;60.318;25.044;2023-12-29T13:13:04;8;7;
73517;PMS5003;61766;60.318;25.044;2023-12-29T13:15:29;8;8;
73517;PMS5003;61766;60.318;25.044;2023-12-29T13:17:54;11;10;
73517;PMS5003;61766;60.318;25.044;2023-12-29T13:20:20;12;12;
73517;PMS5003;61766;60.318;25.044;2023-12-29T13:22:46;8;8;
73517;PMS5003;61766;60.318;25.044;2023-12-29T13:25:11;8;7;
73517;PMS5003;61766;60.318;25.044;2023-12-29T13:27:41;8;7;
73517;PMS5003;61766;60.318;25.044;2023-12-29T13:30:05;9;9;
73517;PMS5003;61766;60.318;25.044;2023-12-29T13:32:30;7;6;
73517;PMS5003;61766;60.318;25.044;2023-12-29T13:34:56;9;9;
73517;PMS5003;61766;60.318;25.044;2023-12-29T13:37:22;8;8;
73517;PMS5003;61766;60.318;25.044;2023-12-29T13:39:48;7;6;
73517;PMS5003;61766;60.318;25.044;2023-12-29T13:42:11;9;9;
73517;PMS5003;61766;60.318;25.044;2023-12-29T13:44:36;9;8;
73517;PMS5003;61766;60.318;25.044;2023-12-29T13:47:01;6;6;
73517;PMS5003;61766;60.318;25.044;2023-12-29T13:49:26;8;8;
73517;PMS5003;61766;60.318;25.044;2023-12-29T13:51:51;6;6;
73517;PMS5003;61766;60.318;25.044;2023-12-29T13:54:17;8;7;
73517;PMS5003;61766;60.318;25.044;2023-12-29T13:59:07;8;7;
73517;PMS5003;61766;60.318;25.044;2023-12-29T14:01:36;7;7;
73517;PMS5003;61766;60.318;25.044;2023-12-29T14:03:59;7;7;
73517;PMS5003;61766;60.318;25.044;2023-12-29T14:06:27;8;7;
73517;PMS5003;61766;60.318;25.044;2023-12-29T14:08:48;8;7;
73517;PMS5003;61766;60.318;25.044;2023-12-29T14:11:14;6;6;
73517;PMS5003;61766;60.318;25.044;2023-12-29T14:13:41;8;8;
73517;PMS5003;61766;60.318;25.044;2023-12-29T14:16:06;8;8;
73517;PMS5003;61766;60.318;25.044;2023-12-29T14:18:34;8;8;
73517;PMS5003;61766;60.318;25.044;2023-12-29T14:20:55;9;8;
73517;PMS5003;61766;60.318;25.044;2023-12-29T14:23:20;8;8;
73517;PMS5003;61766;60.318;25.044;2023-12-29T14:25:45;7;5;
73517;PMS5003;61766;60.318;25.044;2023-12-29T14:28:14;8;8;
73517;PMS5003;61766;60.318;25.044;2023-12-29T14:30:36;8;8;
73517;PMS5003;61766;60.318;25.044;2023-12-29T14:33:01;6;6;
73517;PMS5003;61766;60.318;25.044;2023-12-29T14:35:26;6;6;
73517;PMS5003;61766;60.318;25.044;2023-12-29T14:37:51;5;5;
73517;PMS5003;61766;60.318;25.044;2023-12-29T14:40:17;6;6;
73517;PMS5003;61766;60.318;25.044;2023-12-29T14:42:42;6;6;
73517;PMS5003;61766;60.318;25.044;2023-12-29T14:45:07;7;6;
73517;PMS5003;61766;60.318;25.044;2023-12-29T14:47:32;4;4;
73517;PMS5003;61766;60.318;25.044;2023-12-29T14:49:57;6;6;
73517;PMS5003;61766;60.318;25.044;2023-12-29T14:52:23;4;3;
73517;PMS5003;61766;60.318;25.044;2023-12-29T14:54:48;8;8;
73517;PMS5003;61766;60.318;25.044;2023-12-29T14:57:13;7;7;
73517;PMS5003;61766;60.318;25.044;2023-12-29T14:59:38;8;8;
73517;PMS5003;61766;60.318;25.044;2023-12-29T15:02:04;10;9;
73517;PMS5003;61766;60.318;25.044;2023-12-29T15:04:29;9;8;
73517;PMS5003;61766;60.318;25.044;2023-12-29T15:06:54;8;8;
73517;PMS5003;61766;60.318;25.044;2023-12-29T15:09:19;8;8;
73517;PMS5003;61766;60.318;25.044;2023-12-29T15:11:44;10;10;
73517;PMS5003;61766;60.318;25.044;2023-12-29T15:14:10;12;11;
73517;PMS5003;61766;60.318;25.044;2023-12-29T15:16:35;14;14;
73517;PMS5003;61766;60.318;25.044;2023-12-29T15:19:01;10;10;
73517;PMS5003;61766;60.318;25.044;2023-12-29T15:21:26;12;12;
73517;PMS5003;61766;60.318;25.044;2023-12-29T15:23:52;13;12;
73517;PMS5003;61766;60.318;25.044;2023-12-29T15:26:17;12;12;
73517;PMS5003;61766;60.318;25.044;2023-12-29T15:28:43;12;12;
73517;PMS5003;61766;60.318;25.044;2023-12-29T15:31:08;13;13;
73517;PMS5003;61766;60.318;25.044;2023-12-29T15:33:33;11;10;
73517;PMS5003;61766;60.318;25.044;2023-12-29T15:35:58;14;13;
73517;PMS5003;61766;60.318;25.044;2023-12-29T15:38:24;20;19;
73517;PMS5003;61766;60.318;25.044;2023-12-29T15:40:50;12;10;
73517;PMS5003;61766;60.318;25.044;2023-12-29T15:43:15;13;12;
73517;PMS5003;61766;60.318;25.044;2023-12-29T15:45:41;23;20;
73517;PMS5003;61766;60.318;25.044;2023-12-29T15:48:07;12;12;
73517;PMS5003;61766;60.318;25.044;2023-12-29T15:50:32;15;15;
73517;PMS5003;61766;60.318;25.044;2023-12-29T15:52:57;20;18;
73517;PMS5003;61766;60.318;25.044;2023-12-29T15:55:23;22;21;
73517;PMS5003;61766;60.318;25.044;2023-12-29T15:57:49;20;20;
73517;PMS5003;61766;60.318;25.044;2023-12-29T16:00:14;20;19;
73517;PMS5003;61766;60.318;25.044;2023-12-29T16:02:39;20;19;
73517;PMS5003;61766;60.318;25.044;2023-12-29T16:05:05;28;25;
73517;PMS5003;61766;60.318;25.044;2023-12-29T16:07:30;28;26;
73517;PMS5003;61766;60.318;25.044;2023-12-29T16:09:56;19;19;
73517;PMS5003;61766;60.318;25.044;2023-12-29T16:12:21;21;21;
73517;PMS5003;61766;60.318;25.044;2023-12-29T16:14:46;22;21;
73517;PMS5003;61766;60.318;25.044;2023-12-29T16:17:12;26;22;
73517;PMS5003;61766;60.318;25.044;2023-12-29T16:19:37;28;26;
73517;PMS5003;61766;60.318;25.044;2023-12-29T16:22:03;28;24;
73517;PMS5003;61766;60.318;25.044;2023-12-29T16:24:28;26;24;
73517;PMS5003;61766;60.318;25.044;2023-12-29T16:26:54;25;25;